INFORMACIÓN METAR y TAF
METAR FOR LEPP
ADDS - METARS form results

(0507 UTC 19 December 2018)
Data provider http://aviationweather.gov/metar/data/
 
METAR text: LEPP 190500Z VRB02KT 9999 FEW025 SCT030 BKN035 05/03 Q1019
Conditions at: LEPP (PAMPLONA/NOAIN , ES) observed 0500 UTC 19 December 2018
Temperature: 5.0°C (41°F)
Dewpoint: 3.0°C (37°F) [RH = 87%]
Pressure (altimeter): 30.09 inches Hg (1019.0 mb)
Winds: variable direction winds at 2 MPH (2 knots; 1.0 m/s)
Visibility: 6 or more miles (10+ km)
Ceiling: 3500 feet AGL
Clouds: few clouds at 2500 feet AGL
scattered clouds at 3000 feet AGL
broken clouds at 3500 feet AGL
Weather: no significant weather observed at this time

METAR text: LEPP 190430Z 13003KT 110V170 9999 FEW025 SCT030 BKN038 05/03 Q1018
Conditions at: LEPP (PAMPLONA/NOAIN , ES) observed 0430 UTC 19 December 2018
Temperature: 5.0°C (41°F)
Dewpoint: 3.0°C (37°F) [RH = 87%]
Pressure (altimeter): 30.06 inches Hg (1018.0 mb)
Winds: from the SE (130 degrees) at 3 MPH (3 knots; 1.5 m/s)
Visibility: 6 or more miles (10+ km)
Ceiling: 3800 feet AGL
Clouds: few clouds at 2500 feet AGL
scattered clouds at 3000 feet AGL
broken clouds at 3800 feet AGL
Weather: no significant weather observed at this time

Forecast for: LEPP (PAMPLONA/NOAIN , ES)
Text: TAF LEPP 190200Z 1903/2003 19008KT 9999 SCT040 TX11/1914Z TN01/1907Z
Forecast period: 0300 UTC 19 December 2018 to 0300 UTC 20 December 2018
Forecast type: FROM: standard forecast or significant change
Winds: from the S (190 degrees) at 9 MPH (8 knots; 4.1 m/s)
Visibility: 6 or more miles 10+ km)
Ceiling: at least 12,000 feet AGL
Clouds: scattered clouds at 4000 feet AGL
Weather: no significant weather forecast for this period
Text: TEMPO 1909/1915 26010KT
Forecast period: 0900 to 1500 UTC 19 December 2018
Forecast type: TEMPORARY: The following changes expected for less than half the time period
Winds: from the W (260 degrees) at 12 MPH (10 knots; 5.1 m/s)
Visibility: missing
Ceiling: unknown
Clouds: missing
Weather: no significant weather forecast for this period

 MAPA DE AEROPUERTO

 INFORMACIÓN DE PISTA
Pista 15 Longitud 0 ft Ancho 0 ft
Elevación 1468 ft Umbral desplazado 0 ft Rumbo de pista 0
Pista 33 Longitud 0 ft Ancho 0 ft
Elevación 1500 ft Umbral desplazado 0 ft Rumbo de pista 0
Pista 16 Longitud 7241 ft Ancho 148 ft
Elevación 1468 ft Umbral desplazado 0 ft Rumbo de pista 152
Pista 34 Longitud 7241 ft Ancho 148 ft
Elevación 1504 ft Umbral desplazado 984 ft Rumbo de pista 332

 FRECUANCIAS DEL AEROPUERTO
Tipo APP Nombre APP Frecuencia 118.2 MHZ
Tipo GND Nombre GND Frecuencia 121.7 MHZ
Tipo TWR Nombre TWR Frecuencia 118.2 MHZ

 RADIO AYUDAS DEL AEROPUERTO
Tipo NDB Nombre Pamplona Frecuencia 422 KHZ
Tipo VOR-DME Nombre Pamplona Frecuencia 113550 KHZ
Tipo VOR-DME Nombre Pamplona Frecuencia 112300 KHZ



Powered by Virtual Airlines Manager [v2.6.2]